PIE weather

St Petersburg Clearwater International Airport
St Petersburg-Clearwater, Florida, United States

Public forecast

Using degrees Fahrenheit for public forecast. Weather courtesy of forecast.io.

METAR (pilot weather report)

Retrieved 2019/07/20 18:53 UTC (19 minutes ago):

KPIE 201853Z AUTO 06007KT 10SM FEW043 32/23 A3004 RMK AO2 SLP173 T03220228 $

TAF (pilot weather forecast)

Retrieved 2019/07/20 18:22 UTC (50 minutes ago):

TAF KPIE 201720Z 2018/2118 14005KT P6SM VCTS SCT030CB BKN200 FM202100 30009KT 6SM SHRA VCTS SCT030CB BKN100 BKN200 TEMPO 2022/2024 VRB25G35KT 2SM TSRA BKN020CB FM210200 08006KT P6SM SCT030 BKN200 FM210600 11005KT P6SM FEW030 SCT200 FM211500 13006KT P6SM SCT040 BKN200